Terminal Aerodrome Forecast
Issued by NWS

Home | Current Version | Previous Version | Text Only | Print | Product List | Glossary On
Versions: 1 2 3 4 5 6 7 8 9 10 11 12 13 14
000
FTUS43 KDDC 161120
TAFHYS
TAF
KHYS 161120Z 1612/1712 23004KT P6SM SKC
     FM161500 21008KT P6SM SKC
     FM161700 21017G25KT P6SM SKC
     FM170100 18010KT P6SM FEW250
     FM170500 19009KT P6SM FEW250 WS020/21040KT
     FM170700 20008KT P6SM FEW250=

USA.gov is the U.S. government's official web portal to all federal, state and local government web resources and services.